Terminal Aerodrome Forecast
Issued by NWS Shreveport, LA

Home | Current Version | Previous Version | Text Only | Print | Product List | Glossary On
Versions: 1 2 3 4 5 6 7 8 9 10 11 12 13 14 15
799
FTUS44 KSHV 232336
TAFTXK
TAF
KTXK 232336Z 2400/2424 19006KT P6SM VCTS BKN060CB BKN250
     FM240200 17003KT P6SM SCT250
     FM241300 17004KT P6SM VCTS SCT045CB BKN150
     FM241700 22006KT P6SM SCT060 BKN250
     FM242000 VRB06KT P6SM SCT150 BKN250=

USA.gov is the U.S. government's official web portal to all federal, state and local government web resources and services.